Time;durP1;ratioP1;P1;durP2;ratioP2;P2;SDS_P1;SDS_P2;PMS_P1;PMS_P2;Temp;Humidity;BMP_temperature;BMP_pressure;BME280_temperature;BME280_humidity;BME280_pressure;Samples;Min_cycle;Max_cycle;Signal;HPM_P1;HPM_P2
2023/08/14 00:02:02;;;;;;;;;;;14.80;99.90;;;;;;5094982;28;19923;-65
2023/08/14 00:04:29;;;;;;;;;;;14.70;99.90;;;;;;5110262;28;20401;-65
2023/08/14 00:06:55;;;;;;;;;;;14.70;99.90;;;;;;5094485;28;19928;-65
2023/08/14 00:09:22;;;;;;;;;;;14.70;99.90;;;;;;5094875;28;19948;-65
2023/08/14 00:11:49;;;;;;;;;;;14.70;99.90;;;;;;5112396;28;19935;-65
2023/08/14 00:14:17;;;;;;;;;;;14.70;99.90;;;;;;5113059;28;19949;-64
2023/08/14 00:16:44;;;;;;;;;;;14.70;99.90;;;;;;5094386;28;19924;-64
2023/08/14 00:19:11;;;;;;;;;;;14.70;99.90;;;;;;5112249;28;19977;-64
2023/08/14 00:21:37;;;;;;;;;;;14.70;99.90;;;;;;5094828;28;19923;-64
2023/08/14 00:24:04;;;;;;;;;;;14.60;99.90;;;;;;5096902;28;19923;-64
2023/08/14 00:26:31;;;;;;;;;;;14.60;99.90;;;;;;5116996;28;19931;-65
2023/08/14 00:28:58;;;;;;;;;;;14.60;99.90;;;;;;5098414;28;20307;-65
2023/08/14 00:31:26;;;;;;;;;;;14.60;99.90;;;;;;5116178;28;19924;-65
2023/08/14 00:33:53;;;;;;;;;;;14.60;99.90;;;;;;5116694;28;19935;-65
2023/08/14 00:36:19;;;;;;;;;;;14.60;99.90;;;;;;5098212;28;19927;-65
2023/08/14 00:38:46;;;;;;;;;;;14.60;99.90;;;;;;5115821;28;19937;-65
2023/08/14 00:41:13;;;;;;;;;;;14.50;99.90;;;;;;5116746;28;19928;-65
2023/08/14 00:43:39;;;;;;;;;;;14.50;99.90;;;;;;5098219;28;19928;-64
2023/08/14 00:46:07;;;;;;;;;;;14.60;99.90;;;;;;5097746;28;19928;-64
2023/08/14 00:48:35;;;;;;;;;;;14.60;99.90;;;;;;5097920;28;19978;-65
2023/08/14 00:51:02;;;;;;;;;;;14.50;99.90;;;;;;5116200;28;19924;-65
2023/08/14 00:53:30;;;;;;;;;;;14.50;99.90;;;;;;5115723;28;20023;-65
2023/08/14 00:55:56;;;;;;;;;;;14.50;99.90;;;;;;5116240;28;19928;-63
2023/08/14 00:58:24;;;;;;;;;;;14.40;99.90;;;;;;5097743;28;19927;-64
2023/08/14 01:00:51;;;;;;;;;;;14.40;99.90;;;;;;5115560;28;19923;-64
2023/08/14 01:03:18;;;;;;;;;;;14.40;99.90;;;;;;5097660;28;19931;-64
2023/08/14 01:05:47;;;;;;;;;;;14.40;99.90;;;;;;5097987;28;20398;-64
2023/08/14 01:08:13;;;;;;;;;;;14.40;99.90;;;;;;5095274;28;19930;-64
2023/08/14 01:10:51;;;;;;;;;;;14.40;99.90;;;;;;5116177;28;19924;-63
2023/08/14 01:13:23;;;;;;;;;;;14.30;99.90;;;;;;5097266;28;19947;-64
2023/08/14 01:15:51;;;;;;;;;;;14.30;99.90;;;;;;5097819;28;19930;-64
2023/08/14 01:18:20;;;;;;;;;;;14.30;99.90;;;;;;5114993;28;19931;-64
2023/08/14 01:20:59;;;;;;;;;;;14.30;99.90;;;;;;5096783;28;19924;-64
2023/08/14 01:23:30;;;;;;;;;;;14.30;99.90;;;;;;5115942;28;19924;-64
2023/08/14 01:25:58;;;;;;;;;;;14.30;99.90;;;;;;5115911;28;19932;-64
2023/08/14 01:28:25;;;;;;;;;;;14.20;99.90;;;;;;5114813;28;20375;-64
2023/08/14 01:30:52;;;;;;;;;;;14.20;99.90;;;;;;5097123;28;19930;-64
2023/08/14 01:33:18;;;;;;;;;;;14.20;99.90;;;;;;5115703;28;19928;-64
2023/08/14 01:35:47;;;;;;;;;;;14.20;99.90;;;;;;5094121;28;20302;-63
2023/08/14 01:38:17;;;;;;;;;;;14.20;99.90;;;;;;5097238;28;20272;-64
2023/08/14 01:40:46;;;;;;;;;;;14.20;99.90;;;;;;5115603;28;19928;-64
2023/08/14 01:43:15;;;;;;;;;;;14.20;99.90;;;;;;5096658;28;20489;-64
2023/08/14 01:45:42;;;;;;;;;;;14.10;99.90;;;;;;5097240;28;19928;-63
2023/08/14 01:48:10;;;;;;;;;;;14.10;99.90;;;;;;5096761;28;19980;-64
2023/08/14 01:50:39;;;;;;;;;;;14.10;99.90;;;;;;5096662;28;19948;-64
2023/08/14 01:53:06;;;;;;;;;;;14.10;99.90;;;;;;5096800;28;19931;-64
2023/08/14 01:55:33;;;;;;;;;;;14.10;99.90;;;;;;5130364;27;20372;-64
2023/08/14 01:58:00;;;;;;;;;;;14.10;99.90;;;;;;5096653;28;19924;-64
2023/08/14 02:00:31;;;;;;;;;;;14.10;99.90;;;;;;5096891;28;19972;-64
2023/08/14 02:02:58;;;;;;;;;;;14.10;99.90;;;;;;5096061;28;19931;-64
2023/08/14 02:05:24;;;;;;;;;;;14.10;99.90;;;;;;5114953;28;19924;-65
2023/08/14 02:07:51;;;;;;;;;;;14.00;99.90;;;;;;5114917;28;19930;-65
2023/08/14 02:10:18;;;;;;;;;;;14.10;99.90;;;;;;5114106;28;19973;-65
2023/08/14 02:12:45;;;;;;;;;;;14.10;99.90;;;;;;5096731;28;20306;-64
2023/08/14 02:15:11;;;;;;;;;;;14.10;99.90;;;;;;5096561;28;19973;-64
2023/08/14 02:17:39;;;;;;;;;;;14.10;99.90;;;;;;5113930;28;20358;-64
2023/08/14 02:20:08;;;;;;;;;;;14.00;99.90;;;;;;5096589;28;19956;-64
2023/08/14 02:22:34;;;;;;;;;;;14.00;99.90;;;;;;5094249;28;19934;-64
2023/08/14 02:25:01;;;;;;;;;;;14.00;99.90;;;;;;5114140;28;19932;-64
2023/08/14 02:27:28;;;;;;;;;;;14.00;99.90;;;;;;5096501;28;19924;-64
2023/08/14 02:29:54;;;;;;;;;;;14.00;99.90;;;;;;5114286;28;19936;-64
2023/08/14 02:32:21;;;;;;;;;;;14.00;99.90;;;;;;5113815;28;19931;-63
2023/08/14 02:34:50;;;;;;;;;;;14.00;99.90;;;;;;5114340;28;19932;-64
2023/08/14 02:37:18;;;;;;;;;;;14.00;99.90;;;;;;5114061;28;19961;-63
2023/08/14 02:39:45;;;;;;;;;;;14.00;99.90;;;;;;5095507;28;19932;-64
2023/08/14 02:42:12;;;;;;;;;;;14.00;99.90;;;;;;5096206;28;19923;-63
2023/08/14 02:44:39;;;;;;;;;;;14.00;99.90;;;;;;5093178;28;19985;-64
2023/08/14 02:47:06;;;;;;;;;;;14.00;99.90;;;;;;5113046;28;19931;-63
2023/08/14 02:49:33;;;;;;;;;;;13.90;99.90;;;;;;5111707;28;19931;-64
2023/08/14 02:52:01;;;;;;;;;;;14.00;99.90;;;;;;5095083;28;20440;-64
2023/08/14 02:54:28;;;;;;;;;;;14.00;99.90;;;;;;5111922;28;19924;-65
2023/08/14 02:56:55;;;;;;;;;;;14.00;99.90;;;;;;5095573;28;19939;-64
2023/08/14 02:59:22;;;;;;;;;;;14.00;99.90;;;;;;5095176;28;19924;-65
2023/08/14 03:01:49;;;;;;;;;;;14.00;99.90;;;;;;5095765;28;20390;-63
2023/08/14 03:04:16;;;;;;;;;;;14.00;99.90;;;;;;5095740;28;20416;-64
2023/08/14 03:06:43;;;;;;;;;;;14.00;99.90;;;;;;5095036;28;19928;-65
2023/08/14 03:09:12;;;;;;;;;;;14.00;99.90;;;;;;5095336;28;19931;-63
2023/08/14 03:11:38;;;;;;;;;;;14.00;99.90;;;;;;5095568;28;19924;-64
2023/08/14 03:14:05;;;;;;;;;;;13.90;99.90;;;;;;5112987;28;20405;-64
2023/08/14 03:16:32;;;;;;;;;;;13.90;99.90;;;;;;5095210;28;20380;-63
2023/08/14 03:18:58;;;;;;;;;;;14.00;99.90;;;;;;5095710;28;20333;-64
2023/08/14 03:21:25;;;;;;;;;;;14.00;99.90;;;;;;5112834;28;19931;-64
2023/08/14 03:23:52;;;;;;;;;;;14.00;99.90;;;;;;5113643;28;19923;-64
2023/08/14 03:26:20;;;;;;;;;;;14.00;99.90;;;;;;5113149;28;19924;-65
2023/08/14 03:28:47;;;;;;;;;;;14.00;99.90;;;;;;5094432;28;19924;-65
2023/08/14 03:31:13;;;;;;;;;;;14.00;99.90;;;;;;5093091;28;20398;-65
2023/08/14 03:33:40;;;;;;;;;;;14.00;99.90;;;;;;5095388;28;19931;-65
2023/08/14 03:36:07;;;;;;;;;;;14.00;99.90;;;;;;5092541;28;19923;-65
2023/08/14 03:38:34;;;;;;;;;;;14.00;99.90;;;;;;5094940;28;21151;-65
2023/08/14 03:41:01;;;;;;;;;;;14.10;99.90;;;;;;5094723;28;19924;-64
2023/08/14 03:43:29;;;;;;;;;;;14.00;99.90;;;;;;5095060;28;19939;-65
2023/08/14 03:45:55;;;;;;;;;;;14.10;99.90;;;;;;5113125;28;19927;-64
2023/08/14 03:48:22;;;;;;;;;;;14.10;99.90;;;;;;5112181;28;20387;-64
2023/08/14 03:50:50;;;;;;;;;;;14.10;99.90;;;;;;5094705;28;20011;-64
2023/08/14 03:53:17;;;;;;;;;;;14.10;99.90;;;;;;5126949;27;19924;-64
2023/08/14 03:55:45;;;;;;;;;;;14.20;99.90;;;;;;5112307;28;19924;-64
2023/08/14 03:58:12;;;;;;;;;;;14.20;99.90;;;;;;5113320;28;20372;-66
2023/08/14 04:00:40;;;;;;;;;;;14.20;99.90;;;;;;5119857;28;19924;-66
2023/08/14 04:03:06;;;;;;;;;;;14.20;99.90;;;;;;5117319;28;19931;-65
2023/08/14 04:05:36;;;;;;;;;;;14.30;99.90;;;;;;5119735;28;19931;-65
2023/08/14 04:08:03;;;;;;;;;;;14.30;99.90;;;;;;5101298;28;19923;-65
2023/08/14 04:10:30;;;;;;;;;;;14.30;99.90;;;;;;5119118;28;20015;-65
2023/08/14 04:12:57;;;;;;;;;;;14.40;99.90;;;;;;5101610;28;20355;-65
2023/08/14 04:15:24;;;;;;;;;;;14.40;99.90;;;;;;5119382;28;19932;-64
2023/08/14 04:17:52;;;;;;;;;;;14.40;99.90;;;;;;5100543;28;19923;-64
2023/08/14 04:20:18;;;;;;;;;;;14.40;99.90;;;;;;5101433;28;20291;-65
2023/08/14 04:22:45;;;;;;;;;;;14.40;99.90;;;;;;5101396;28;19931;-65
2023/08/14 04:25:12;;;;;;;;;;;14.40;99.90;;;;;;5100830;28;19924;-65
2023/08/14 04:27:39;;;;;;;;;;;14.50;99.90;;;;;;5101507;28;19930;-66
2023/08/14 04:30:06;;;;;;;;;;;14.50;99.90;;;;;;5100943;28;19931;-66
2023/08/14 04:32:33;;;;;;;;;;;14.50;99.90;;;;;;5101530;28;19930;-65
2023/08/14 04:35:01;;;;;;;;;;;14.50;99.90;;;;;;5101406;28;20299;-64
2023/08/14 04:37:28;;;;;;;;;;;14.50;99.90;;;;;;5118972;28;19924;-64
2023/08/14 04:39:54;;;;;;;;;;;14.50;99.90;;;;;;5119286;28;19927;-64
2023/08/14 04:42:21;;;;;;;;;;;14.50;99.90;;;;;;5101391;28;19924;-64
2023/08/14 04:44:48;;;;;;;;;;;14.50;99.90;;;;;;5111673;27;19935;-64
2023/08/14 04:47:15;;;;;;;;;;;14.50;99.90;;;;;;5096054;28;19923;-65
2023/08/14 04:49:41;;;;;;;;;;;14.60;99.90;;;;;;5115909;28;19924;-65
2023/08/14 04:52:10;;;;;;;;;;;14.70;99.90;;;;;;5116476;28;19924;-65
2023/08/14 04:54:36;;;;;;;;;;;14.70;99.90;;;;;;5113290;28;19939;-65
2023/08/14 04:57:03;;;;;;;;;;;14.90;99.90;;;;;;5118152;28;20010;-64
2023/08/14 04:59:30;;;;;;;;;;;15.10;99.90;;;;;;5097222;28;19977;-64
2023/08/14 05:01:57;;;;;;;;;;;15.30;99.90;;;;;;5099196;28;19932;-64
2023/08/14 05:04:24;;;;;;;;;;;15.20;99.90;;;;;;5098548;28;19935;-64
2023/08/14 05:06:52;;;;;;;;;;;15.40;99.90;;;;;;5098944;28;19931;-65
2023/08/14 05:09:20;;;;;;;;;;;15.60;99.90;;;;;;5097190;28;19930;-65
2023/08/14 05:11:46;;;;;;;;;;;15.50;99.90;;;;;;5096642;28;20033;-65
2023/08/14 05:14:13;;;;;;;;;;;15.50;99.90;;;;;;5094167;28;19931;-65
2023/08/14 05:16:41;;;;;;;;;;;15.40;99.90;;;;;;5113374;28;19924;-65
2023/08/14 05:19:07;;;;;;;;;;;15.50;99.90;;;;;;5112909;28;20014;-65
2023/08/14 05:21:34;;;;;;;;;;;15.50;99.90;;;;;;5112372;28;22043;-65
2023/08/14 05:24:01;;;;;;;;;;;15.50;99.90;;;;;;5096318;28;20397;-66
2023/08/14 05:26:29;;;;;;;;;;;15.90;99.90;;;;;;5095275;28;19969;-66
2023/08/14 05:28:55;;;;;;;;;;;15.80;99.90;;;;;;5096880;28;20371;-64
2023/08/14 05:31:22;;;;;;;;;;;16.30;99.90;;;;;;5093803;28;19927;-65
2023/08/14 05:33:49;;;;;;;;;;;16.20;99.90;;;;;;5095875;28;20342;-64
2023/08/14 05:36:16;;;;;;;;;;;16.20;99.90;;;;;;5111306;28;20027;-65
2023/08/14 05:38:44;;;;;;;;;;;16.30;99.90;;;;;;5095243;28;19931;-64
2023/08/14 05:41:11;;;;;;;;;;;16.30;99.90;;;;;;5112882;28;19927;-65
2023/08/14 05:43:39;;;;;;;;;;;16.30;99.90;;;;;;5095821;28;19924;-65
2023/08/14 05:46:06;;;;;;;;;;;16.30;99.90;;;;;;5092535;28;19984;-64
2023/08/14 05:48:32;;;;;;;;;;;16.40;99.90;;;;;;5095881;28;19923;-66
2023/08/14 05:50:59;;;;;;;;;;;16.50;99.90;;;;;;5093612;28;19931;-65
2023/08/14 05:53:26;;;;;;;;;;;16.50;99.90;;;;;;5095853;28;19928;-65
2023/08/14 05:55:53;;;;;;;;;;;16.70;99.90;;;;;;5111758;28;19924;-65
2023/08/14 05:58:19;;;;;;;;;;;16.70;99.90;;;;;;5114091;28;19924;-65
2023/08/14 06:00:49;;;;;;;;;;;16.70;99.90;;;;;;5110394;28;19935;-65
2023/08/14 06:03:16;;;;;;;;;;;16.80;99.90;;;;;;5128211;27;20002;-65
2023/08/14 06:05:42;;;;;;;;;;;16.80;99.90;;;;;;5113127;28;19934;-64
2023/08/14 06:08:09;;;;;;;;;;;16.80;99.90;;;;;;5092647;28;19931;-64
2023/08/14 06:10:36;;;;;;;;;;;16.90;99.90;;;;;;5093975;28;19931;-64
2023/08/14 06:13:03;;;;;;;;;;;16.90;99.90;;;;;;5093293;28;19928;-65
2023/08/14 06:15:29;;;;;;;;;;;17.00;99.90;;;;;;5095356;28;19928;-65
2023/08/14 06:17:57;;;;;;;;;;;17.10;99.90;;;;;;5111354;28;20006;-64
2023/08/14 06:20:24;;;;;;;;;;;17.20;99.90;;;;;;5112785;28;20429;-64
2023/08/14 06:22:51;;;;;;;;;;;17.30;99.90;;;;;;5108430;28;20376;-64
2023/08/14 06:25:18;;;;;;;;;;;17.40;99.90;;;;;;5095304;28;19939;-64
2023/08/14 06:27:45;;;;;;;;;;;17.50;99.90;;;;;;5092528;28;19942;-64
2023/08/14 06:30:12;;;;;;;;;;;17.60;99.90;;;;;;5094490;28;19931;-65
2023/08/14 06:32:39;;;;;;;;;;;17.80;99.90;;;;;;5110198;28;20010;-65
2023/08/14 06:35:08;;;;;;;;;;;17.90;99.90;;;;;;5095045;28;20375;-65
2023/08/14 06:37:35;;;;;;;;;;;18.00;99.90;;;;;;5109581;28;19924;-65
2023/08/14 06:40:03;;;;;;;;;;;18.00;99.90;;;;;;5112177;28;20448;-65
2023/08/14 06:42:30;;;;;;;;;;;18.10;99.90;;;;;;5092366;28;20386;-66
2023/08/14 06:44:57;;;;;;;;;;;18.10;99.90;;;;;;5094799;28;20384;-66
2023/08/14 06:47:23;;;;;;;;;;;18.10;99.90;;;;;;5113846;28;19924;-66
2023/08/14 06:49:50;;;;;;;;;;;18.10;99.90;;;;;;5114306;28;19924;-65
2023/08/14 06:52:18;;;;;;;;;;;18.10;99.90;;;;;;5111307;28;20276;-65
2023/08/14 06:54:45;;;;;;;;;;;18.20;99.90;;;;;;5095882;28;19928;-65
2023/08/14 06:57:12;;;;;;;;;;;18.30;99.90;;;;;;5113088;28;20307;-65
2023/08/14 06:59:39;;;;;;;;;;;18.40;99.90;;;;;;5113355;28;19939;-65
2023/08/14 07:02:05;;;;;;;;;;;18.50;99.90;;;;;;5095400;28;19931;-65
2023/08/14 07:04:32;;;;;;;;;;;18.60;99.90;;;;;;5113853;28;19931;-64
2023/08/14 07:06:59;;;;;;;;;;;18.80;99.90;;;;;;5095072;28;20479;-65
2023/08/14 07:09:27;;;;;;;;;;;19.00;99.90;;;;;;5113712;28;20318;-66
2023/08/14 07:11:54;;;;;;;;;;;19.20;99.90;;;;;;5113539;28;19946;-65
2023/08/14 07:14:21;;;;;;;;;;;19.60;99.90;;;;;;5112815;28;20371;-66
2023/08/14 07:16:48;;;;;;;;;;;20.20;99.90;;;;;;5095342;28;19923;-65
2023/08/14 07:19:17;;;;;;;;;;;20.70;99.90;;;;;;5094636;28;19949;-65
2023/08/14 07:21:44;;;;;;;;;;;21.00;99.90;;;;;;5113272;28;20019;-65
2023/08/14 07:24:12;;;;;;;;;;;21.40;99.90;;;;;;5113317;28;19931;-65
2023/08/14 07:26:40;;;;;;;;;;;21.70;99.90;;;;;;5112694;28;19928;-64
2023/08/14 07:29:07;;;;;;;;;;;22.20;99.90;;;;;;5113167;28;19924;-65
2023/08/14 07:31:34;;;;;;;;;;;22.50;99.90;;;;;;5095402;28;19924;-65
2023/08/14 07:34:00;;;;;;;;;;;22.90;99.90;;;;;;5112005;28;19939;-65
2023/08/14 07:36:27;;;;;;;;;;;23.10;99.90;;;;;;5113184;28;19923;-65
2023/08/14 07:38:54;;;;;;;;;;;22.90;99.90;;;;;;5094841;28;19924;-65
2023/08/14 07:41:21;;;;;;;;;;;22.90;99.90;;;;;;5094579;28;20367;-65
2023/08/14 07:43:49;;;;;;;;;;;23.00;99.90;;;;;;5113284;28;19927;-65
2023/08/14 07:46:17;;;;;;;;;;;23.20;99.90;;;;;;5112701;28;20383;-65
2023/08/14 07:48:43;;;;;;;;;;;23.30;99.90;;;;;;5094256;28;19923;-65
2023/08/14 07:51:10;;;;;;;;;;;23.50;99.90;;;;;;5094712;28;19931;-65
2023/08/14 07:53:37;;;;;;;;;;;23.60;99.90;;;;;;5095056;28;19924;-65
2023/08/14 07:56:04;;;;;;;;;;;23.50;99.90;;;;;;5094021;28;19924;-64
2023/08/14 07:58:31;;;;;;;;;;;23.30;99.90;;;;;;5094687;28;19936;-64
2023/08/14 08:00:59;;;;;;;;;;;22.80;99.90;;;;;;5094886;28;19934;-65
2023/08/14 08:03:26;;;;;;;;;;;22.50;99.90;;;;;;5112457;28;19981;-65
2023/08/14 08:05:52;;;;;;;;;;;22.30;99.90;;;;;;5113151;28;19972;-65
2023/08/14 08:08:19;;;;;;;;;;;22.20;99.90;;;;;;5112393;28;19931;-65
2023/08/14 08:10:46;;;;;;;;;;;22.10;99.90;;;;;;5094820;28;19924;-66
2023/08/14 08:13:13;;;;;;;;;;;22.00;99.90;;;;;;5094768;28;20299;-65
2023/08/14 08:15:39;;;;;;;;;;;22.00;99.90;;;;;;5112262;28;19927;-65
2023/08/14 08:18:08;;;;;;;;;;;22.00;99.90;;;;;;5112819;28;19927;-65
2023/08/14 08:20:34;;;;;;;;;;;21.90;99.90;;;;;;5112973;28;19961;-65
2023/08/14 08:23:01;;;;;;;;;;;22.00;99.90;;;;;;5091805;28;19924;-65
2023/08/14 08:25:28;;;;;;;;;;;22.10;99.90;;;;;;5081083;28;20391;-64
2023/08/14 08:27:55;;;;;;;;;;;22.50;99.90;;;;;;5108357;28;20432;-65
2023/08/14 08:30:21;;;;;;;;;;;23.00;99.90;;;;;;5092665;28;19931;-66
2023/08/14 08:32:48;;;;;;;;;;;23.30;99.90;;;;;;5091631;28;19928;-66
2023/08/14 08:35:16;;;;;;;;;;;23.80;99.90;;;;;;5093529;28;20384;-66
2023/08/14 08:37:43;;;;;;;;;;;24.20;99.90;;;;;;5108260;28;19969;-65
2023/08/14 08:40:10;;;;;;;;;;;24.60;99.90;;;;;;5093733;28;20332;-65
2023/08/14 08:42:38;;;;;;;;;;;25.00;99.90;;;;;;5091640;28;20421;-66
2023/08/14 08:45:05;;;;;;;;;;;25.20;99.90;;;;;;5111685;28;19928;-65
2023/08/14 08:47:32;;;;;;;;;;;25.10;99.90;;;;;;5094810;28;19973;-65
2023/08/14 08:50:00;;;;;;;;;;;25.00;99.90;;;;;;5115396;28;19931;-65
2023/08/14 08:52:28;;;;;;;;;;;25.40;99.90;;;;;;5092901;28;19924;-66
2023/08/14 08:54:56;;;;;;;;;;;25.30;99.90;;;;;;5096960;28;19969;-66
2023/08/14 08:57:22;;;;;;;;;;;25.40;99.90;;;;;;5113312;28;19951;-66
2023/08/14 08:59:50;;;;;;;;;;;25.40;99.90;;;;;;5114660;28;19930;-66
2023/08/14 09:02:17;;;;;;;;;;;25.60;99.90;;;;;;5112809;28;19931;-66
2023/08/14 09:04:44;;;;;;;;;;;25.90;99.90;;;;;;5094526;28;20432;-66
2023/08/14 09:07:11;;;;;;;;;;;26.10;99.90;;;;;;5095369;28;19923;-65
2023/08/14 09:09:39;;;;;;;;;;;26.20;99.90;;;;;;5096506;28;19925;-65
2023/08/14 09:12:06;;;;;;;;;;;26.50;99.90;;;;;;5094879;28;20392;-66
2023/08/14 09:14:33;;;;;;;;;;;26.90;99.90;;;;;;5114439;28;19939;-66
2023/08/14 09:17:02;;;;;;;;;;;27.10;99.90;;;;;;5112414;28;19934;-65
2023/08/14 09:19:29;;;;;;;;;;;26.70;99.90;;;;;;5112997;28;19973;-65
2023/08/14 09:21:56;;;;;;;;;;;26.20;99.90;;;;;;5114225;28;19923;-66
2023/08/14 09:24:23;;;;;;;;;;;25.60;99.90;;;;;;5094960;28;19923;-66
2023/08/14 09:26:51;;;;;;;;;;;25.80;99.90;;;;;;5096133;28;19923;-66
2023/08/14 09:29:18;;;;;;;;;;;26.40;99.90;;;;;;5110941;28;20387;-66
2023/08/14 09:31:45;;;;;;;;;;;27.10;99.90;;;;;;5096307;28;19928;-65
2023/08/14 09:34:18;;;;;;;;;;;27.80;99.10;;;;;;5111039;28;20355;-66
2023/08/14 09:36:45;;;;;;;;;;;28.30;98.90;;;;;;5093563;28;19946;-66
2023/08/14 09:39:12;;;;;;;;;;;28.90;98.40;;;;;;5112758;28;20333;-66
2023/08/14 09:41:39;;;;;;;;;;;29.30;95.30;;;;;;5095439;28;19943;-65
2023/08/14 09:44:07;;;;;;;;;;;29.40;94.40;;;;;;5094328;28;19924;-66
2023/08/14 09:46:34;;;;;;;;;;;29.60;93.70;;;;;;5095488;28;19924;-66
2023/08/14 09:49:02;;;;;;;;;;;29.90;94.00;;;;;;5110675;28;20426;-65
2023/08/14 09:51:29;;;;;;;;;;;29.90;93.50;;;;;;5114169;28;19934;-67
2023/08/14 09:53:57;;;;;;;;;;;29.90;93.60;;;;;;5109474;28;19924;-66
2023/08/14 09:56:25;;;;;;;;;;;30.40;93.10;;;;;;5112564;28;20456;-67
2023/08/14 09:58:53;;;;;;;;;;;30.40;91.60;;;;;;5112675;28;20379;-66
2023/08/14 10:01:22;;;;;;;;;;;30.70;91.90;;;;;;5112342;28;19934;-65
2023/08/14 10:03:52;;;;;;;;;;;30.30;91.10;;;;;;5095510;28;19989;-66
2023/08/14 10:06:19;;;;;;;;;;;30.40;91.60;;;;;;5110850;28;19977;-67
2023/08/14 10:08:47;;;;;;;;;;;30.90;91.80;;;;;;5112993;28;20286;-66
2023/08/14 10:11:15;;;;;;;;;;;30.40;90.80;;;;;;5109470;28;20379;-66
2023/08/14 10:13:43;;;;;;;;;;;30.00;91.40;;;;;;5095166;28;19927;-66
2023/08/14 10:16:14;;;;;;;;;;;30.30;90.90;;;;;;5090492;28;19984;-65
2023/08/14 10:18:43;;;;;;;;;;;31.00;91.60;;;;;;5113483;28;19977;-66
2023/08/14 10:21:11;;;;;;;;;;;31.80;90.70;;;;;;5112162;28;19928;-67
2023/08/14 10:23:38;;;;;;;;;;;32.20;88.30;;;;;;5094958;28;19935;-66
2023/08/14 10:26:07;;;;;;;;;;;31.60;85.80;;;;;;5094066;28;20318;-66
2023/08/14 10:28:34;;;;;;;;;;;31.60;87.70;;;;;;5113666;28;19931;-66
2023/08/14 10:31:01;;;;;;;;;;;31.50;88.60;;;;;;5089448;28;20420;-66
2023/08/14 10:33:28;;;;;;;;;;;31.20;87.30;;;;;;5092147;28;20034;-66
2023/08/14 10:35:58;;;;;;;;;;;31.70;85.70;;;;;;5109744;28;19924;-67
2023/08/14 10:38:39;;;;;;;;;;;31.80;86.50;;;;;;5091821;28;20004;-66
2023/08/14 10:41:07;;;;;;;;;;;32.20;85.90;;;;;;5093867;28;19924;-66
2023/08/14 10:43:33;;;;;;;;;;;32.10;85.20;;;;;;5090600;28;19928;-66
2023/08/14 10:46:05;;;;;;;;;;;32.50;85.60;;;;;;5093515;28;19930;-67
2023/08/14 10:48:35;;;;;;;;;;;32.30;83.90;;;;;;5111421;28;20018;-67
2023/08/14 10:51:03;;;;;;;;;;;32.50;82.90;;;;;;5093798;28;19973;-66
2023/08/14 10:53:30;;;;;;;;;;;32.50;83.00;;;;;;5094150;28;20344;-66
2023/08/14 10:55:57;;;;;;;;;;;32.30;82.90;;;;;;5111485;28;19924;-66
2023/08/14 10:58:37;;;;;;;;;;;31.50;83.40;;;;;;5093258;28;20390;-67
2023/08/14 11:01:04;;;;;;;;;;;31.40;84.30;;;;;;5094395;28;19923;-66
2023/08/14 11:03:32;;;;;;;;;;;32.00;84.10;;;;;;5111396;28;19932;-66
2023/08/14 11:05:59;;;;;;;;;;;32.30;84.80;;;;;;5094165;28;19980;-66
2023/08/14 11:08:30;;;;;;;;;;;33.00;83.30;;;;;;5108155;28;19931;-66
2023/08/14 11:10:58;;;;;;;;;;;32.10;82.60;;;;;;5094346;28;19927;-66
2023/08/14 11:13:27;;;;;;;;;;;32.60;83.10;;;;;;5093340;28;19976;-66
2023/08/14 11:15:54;;;;;;;;;;;33.00;82.30;;;;;;5110974;28;19931;-66
2023/08/14 11:18:21;;;;;;;;;;;33.10;81.40;;;;;;5125489;27;20295;-66
2023/08/14 11:20:47;;;;;;;;;;;32.70;81.40;;;;;;5092075;28;20013;-66
2023/08/14 11:23:14;;;;;;;;;;;32.60;82.20;;;;;;5093831;28;20367;-66
2023/08/14 11:25:42;;;;;;;;;;;31.90;83.00;;;;;;5090476;28;20838;-66
2023/08/14 11:28:09;;;;;;;;;;;32.70;82.80;;;;;;5110882;28;19934;-66
2023/08/14 11:30:36;;;;;;;;;;;32.60;81.20;;;;;;5108719;28;19924;-66
2023/08/14 11:33:04;;;;;;;;;;;31.80;81.70;;;;;;5112212;28;19928;-67
2023/08/14 11:35:31;;;;;;;;;;;31.40;83.70;;;;;;5107805;28;20363;-65
2023/08/14 11:37:58;;;;;;;;;;;31.80;82.90;;;;;;5093952;28;19930;-67
2023/08/14 11:40:24;;;;;;;;;;;32.30;81.50;;;;;;5121053;27;19924;-66
2023/08/14 11:42:53;;;;;;;;;;;32.50;81.20;;;;;;5112380;28;20238;-67
2023/08/14 11:45:20;;;;;;;;;;;32.50;82.20;;;;;;5089832;28;19934;-66
2023/08/14 11:47:48;;;;;;;;;;;32.50;81.30;;;;;;5093007;28;19977;-66
2023/08/14 11:50:15;;;;;;;;;;;32.80;81.20;;;;;;5091168;28;19924;-66
2023/08/14 11:52:43;;;;;;;;;;;33.30;81.20;;;;;;5094400;28;19928;-67
2023/08/14 11:55:10;;;;;;;;;;;33.30;80.60;;;;;;5091014;28;19932;-66
2023/08/14 11:57:37;;;;;;;;;;;33.60;79.90;;;;;;5093978;28;19931;-67
2023/08/14 12:00:10;;;;;;;;;;;33.90;79.90;;;;;;5091730;28;19932;-67
2023/08/14 12:02:37;;;;;;;;;;;33.10;79.60;;;;;;5126824;28;20018;-67
2023/08/14 12:05:04;;;;;;;;;;;33.20;80.20;;;;;;5110649;28;20292;-67
2023/08/14 12:07:31;;;;;;;;;;;33.20;79.80;;;;;;5108289;28;19932;-67
2023/08/14 12:09:58;;;;;;;;;;;33.00;78.90;;;;;;5111005;28;19949;-67
2023/08/14 12:12:25;;;;;;;;;;;33.00;80.50;;;;;;5092205;28;20359;-67
2023/08/14 12:14:53;;;;;;;;;;;33.60;79.70;;;;;;5092718;28;20399;-67
2023/08/14 12:17:21;;;;;;;;;;;33.50;78.90;;;;;;5092398;28;19950;-67
2023/08/14 12:19:52;;;;;;;;;;;33.60;78.50;;;;;;5112740;28;20391;-67
2023/08/14 12:22:20;;;;;;;;;;;33.60;79.00;;;;;;5113848;28;19924;-67
2023/08/14 12:24:46;;;;;;;;;;;33.70;79.00;;;;;;5115927;28;19927;-67
2023/08/14 12:27:14;;;;;;;;;;;31.90;80.90;;;;;;5114887;28;19939;-67
2023/08/14 12:29:40;;;;;;;;;;;32.40;81.40;;;;;;5114973;28;20329;-65
2023/08/14 12:32:07;;;;;;;;;;;32.60;79.80;;;;;;5113764;28;19931;-66
2023/08/14 12:34:35;;;;;;;;;;;32.90;80.70;;;;;;5115422;28;19928;-65
2023/08/14 12:37:02;;;;;;;;;;;33.20;79.40;;;;;;5094769;28;19927;-66
2023/08/14 12:39:29;;;;;;;;;;;32.90;80.50;;;;;;5115466;28;19928;-67
2023/08/14 12:41:56;;;;;;;;;;;32.90;79.60;;;;;;5113829;28;19924;-67
2023/08/14 12:44:23;;;;;;;;;;;32.50;80.00;;;;;;5097124;28;20416;-67
2023/08/14 12:46:49;;;;;;;;;;;31.60;81.10;;;;;;5114045;28;19928;-67
2023/08/14 12:49:16;;;;;;;;;;;31.30;82.20;;;;;;5096140;28;20402;-67
2023/08/14 12:51:44;;;;;;;;;;;31.10;81.90;;;;;;5094377;28;19928;-66
2023/08/14 12:54:13;;;;;;;;;;;30.60;83.00;;;;;;5111379;28;19928;-66
2023/08/14 12:56:39;;;;;;;;;;;31.20;83.80;;;;;;5096920;28;20024;-66
2023/08/14 12:59:06;;;;;;;;;;;31.60;82.40;;;;;;5094688;28;19934;-66
2023/08/14 13:01:33;;;;;;;;;;;31.40;82.20;;;;;;5096502;28;19924;-66
2023/08/14 13:04:00;;;;;;;;;;;30.90;81.90;;;;;;5095410;28;19935;-66
2023/08/14 13:06:27;;;;;;;;;;;30.50;83.60;;;;;;5095089;28;19928;-66
2023/08/14 13:08:55;;;;;;;;;;;30.30;84.40;;;;;;5112660;28;19924;-66
2023/08/14 13:11:22;;;;;;;;;;;30.40;83.50;;;;;;5095787;28;19943;-66
2023/08/14 13:13:49;;;;;;;;;;;31.00;84.50;;;;;;5112583;28;19938;-66
2023/08/14 13:16:16;;;;;;;;;;;31.70;82.40;;;;;;5115057;28;20003;-66
2023/08/14 13:18:43;;;;;;;;;;;31.90;82.40;;;;;;5094129;28;20015;-66
2023/08/14 13:21:10;;;;;;;;;;;32.00;81.40;;;;;;5094508;28;19934;-66
2023/08/14 13:23:36;;;;;;;;;;;32.40;81.50;;;;;;5112939;28;19938;-66
2023/08/14 13:26:05;;;;;;;;;;;32.50;81.40;;;;;;5096142;28;19977;-65
2023/08/14 13:28:35;;;;;;;;;;;32.30;79.90;;;;;;5113146;28;19924;-66
2023/08/14 13:31:04;;;;;;;;;;;31.50;80.80;;;;;;5112985;28;20363;-66
2023/08/14 13:33:30;;;;;;;;;;;30.90;81.80;;;;;;5112031;28;19928;-65
2023/08/14 13:35:57;;;;;;;;;;;30.60;82.80;;;;;;5113707;28;19924;-66
2023/08/14 13:38:24;;;;;;;;;;;30.00;82.10;;;;;;5113534;28;19946;-66
2023/08/14 13:40:51;;;;;;;;;;;29.50;83.50;;;;;;5112222;28;20198;-66
2023/08/14 13:43:19;;;;;;;;;;;29.20;85.10;;;;;;5113176;28;19924;-66
2023/08/14 13:45:46;;;;;;;;;;;29.70;86.30;;;;;;5112283;28;19935;-67
2023/08/14 13:48:12;;;;;;;;;;;30.30;85.00;;;;;;5112780;28;19924;-67
2023/08/14 13:50:39;;;;;;;;;;;30.90;83.50;;;;;;5112469;28;19924;-67
2023/08/14 13:53:06;;;;;;;;;;;31.30;82.40;;;;;;5114108;28;19938;-65
2023/08/14 13:55:33;;;;;;;;;;;31.40;82.70;;;;;;5093513;28;19992;-66
2023/08/14 13:58:01;;;;;;;;;;;31.90;82.60;;;;;;5095976;28;20288;-66
2023/08/14 14:00:29;;;;;;;;;;;31.70;81.70;;;;;;5091962;28;19934;-66
2023/08/14 14:02:56;;;;;;;;;;;31.30;81.70;;;;;;5095298;28;19935;-66
2023/08/14 14:05:23;;;;;;;;;;;30.40;82.20;;;;;;5094122;28;19934;-67
2023/08/14 14:07:50;;;;;;;;;;;29.80;83.50;;;;;;5112525;28;20307;-66
2023/08/14 14:10:17;;;;;;;;;;;29.70;84.90;;;;;;5111416;28;19938;-65
2023/08/14 14:12:43;;;;;;;;;;;29.70;85.70;;;;;;5113707;28;19932;-65
2023/08/14 14:15:10;;;;;;;;;;;29.40;86.10;;;;;;5092023;28;19927;-66
2023/08/14 14:17:38;;;;;;;;;;;29.10;86.40;;;;;;5095318;28;19943;-66